• Join FlightAware (Why Join?)
  • Login
  • US Flag 
04:57AM EDT


 

Airport Tracker/Info


-or-


 

Live Flight TrackerFlight Track Log ✈ UCA3596 ✈ 10-Jan-2014 ✈ KIAD - KBGM

Flight Track Log - Related Links

Times and Time Zones

All times are in EST time to prevent confusion due to time zone crossing. See the UCA3596 flight status page for this flight to view local times or setup timezone preferences in your user account.

Time Position Orientation Groundspeed Altitude Reporting Facility
EST Latitude Longitude Course Direction KTS MPH feet Rate Location/Type
01:32PM 40.0385 -76.9815 19° North  Level Estimated
01:33PM 40.1066 -76.9511 19° North  Level Estimated
01:34PM 40.1747 -76.9206 19° North  Level Estimated
01:35PM 40.2428 -76.8901 19° North  Level Estimated
01:36PM 40.3109 -76.8595 19° North  Level Estimated
01:37PM 40.3790 -76.8288 19° North  Level Estimated
01:38PM 40.4471 -76.7981 19° North  Level Estimated
01:39PM 40.5151 -76.7673 19° North  Level Estimated
01:40PM 40.5832 -76.7365 19° North  Level Estimated
01:41PM 40.6513 -76.7056 19° North  Level Estimated
01:42PM 40.7193 -76.6746 19° North  Level Estimated
01:43PM 40.7874 -76.6436 19° North  Level Estimated
01:44PM 40.8554 -76.6125 19° North  Level Estimated
01:45PM 40.9234 -76.5814 19° North  Level Estimated
01:46PM 40.9914 -76.5501 19° North  Level Estimated
01:47PM 41.0594 -76.5188 19° North  Level Estimated
01:48PM 41.1274 -76.4875 19° North  Level Estimated
01:49PM 41.1954 -76.4561 19° North  Level Estimated
01:50PM 41.2634 -76.4246 19° North  Level Estimated
01:51PM 41.3314 -76.3930 19° North  Level Estimated
01:52PM 41.3993 -76.3614 19° North  Level Estimated
01:53PM 41.4673 -76.3298 19° North  Level Estimated
01:54PM 41.5353 -76.2980 19° North  Level Estimated
01:55PM 41.6032 -76.2662 19° North  Level Estimated
01:56PM 41.6711 -76.2343 19° North  Level Estimated
01:57PM 41.7391 -76.2024 19° North  Level Estimated
01:58PM 41.8070 -76.1703 19° North  Level Estimated
01:59PM 41.8749 -76.1383 19° North  Level Estimated
02:00PM 41.9427 -76.1061 19° North  Level Estimated
02:01PM 42.0106 -76.0739 19° North  Level Estimated
02:02PM 42.0785 -76.0416 19° North  Level Estimated
02:03PM 42.1464 -76.0093 19° North  Level Estimated
02:04PM 42.2084 -75.9796 19° North  Level Estimated
02:05PM 42.2084 -75.9796 35° Northeast  Level Estimated
02:06PM 42.2084 -75.9796 35° Northeast  Level Estimated
02:07PM 42.2084 -75.9796 35° Northeast  Level Estimated
02:08PM 42.2084 -75.9796 35° Northeast  Level Estimated
02:09PM 42.2084 -75.9796 35° Northeast  Level Estimated
02:10PM 42.2084 -75.9796 35° Northeast  Level Estimated
02:11PM 42.2084 -75.9796 35° Northeast  Level Estimated
02:12PM 42.2084 -75.9796 35° Northeast  Level Estimated
02:13PM 42.2084 -75.9796 35° Northeast  Level Estimated
02:14PM 42.2084 -75.9796 35° Northeast  Level Estimated
02:15PM 42.2084 -75.9796 35° Northeast  Level Estimated
02:16PM 42.2084 -75.9796 35° Northeast  Level Estimated
02:17PM 42.2084 -75.9796 35° Northeast  Level Estimated
02:18PM 42.2084 -75.9796 35° Northeast  Level Estimated
02:19PM 42.2084 -75.9796 35° Northeast  Level Estimated
02:20PM 42.2084 -75.9796 35° Northeast  Level Estimated